Men’s Results 1993-2010

Men’s IHLC Title Game Results, 1993-2010
Results listed as follows – game number, winner, score, loser, date, event, location.

belarus-11 BELARUS – 3rd reign, 1 win
1494. belarus-11 BLR 4-3 SUI switzerland-11 – 12/18/2010 – ARC – Herisau switzerland-11

switzerland-11 SWITZERLAND – 12th reign, 1 win
1493. switzerland-11 SUI 3-0 DEN denmark-11 – 12/17/2010 – ARC – Herisau switzerland-11

denmark-11 DENMARK – 1st reign, 2 wins
1492. denmark-11 DEN 3-2 SLO slovenia-11 (SO) – 11/13/2010 – PC – Gomel belarus-11
1491. denmark-11 DEN 3-2 NOR norway-11 (SO) – 11/12/2010 – PC – Gomel belarus-11

norway-11 NORWAY – 3rd reign, 2 wins
1490. norway-11 NOR 3-1 SLO slovenia-11 – 11/11/2010 – PC – Gomel belarus-11
1489. norway-11 NOR 3-2 SUI switzerland-11 – 05/17/2010 – WC – Mannheim germany1920to33and49-11

switzerland-11 SWITZERLAND – 11th reign, 2 wins
1488. switzerland-11 SUI 3-2 CZE czech-11 – 05/15/2010 – WC – Mannheim germany1920to33and49-11
1487. switzerland-11 SUI 4-1 CAN canada1965-11 – 05/12/2010 – WC – Mannheim germany1920to33and49-11

canada1965-11 CANADA – 55th reign, 5 wins
1486. canada1965-11 CAN 6-1 LAT latvia-11 – 05/10/2010 – WC – Mannheim germany1920to33and49-11
1485. canada1965-11 CAN 5-1 ITA italy-11 – 05/08/2010 – WC – Mannheim germany1920to33and49-11
1484. canada1965-11 CAN 4-1 GER germany1920to33and49-11 – 05/04/2010 – EX – Hamburg germany1920to33and49-11
1483. canada1965-11 CAN 3-2 USA usa-11 (OT)- 02/28/2010 – OG – Vancouver canada1965-11 goldmedal
1482. canada1965-11 CAN 3-2 SVK slovakia-11 – 02/26/2010 – OG – Vancouver canada1965-11

slovakia-11 SLOVAKIA9th reign, 1 win
1481. slovakia-11 SVK 4-3 SWE sweden-11 – 02/24/2010 – OG – Vancouver canada1965-11

sweden-11 SWEDEN – 67th reign, 1 win
1480. sweden-11 SWE 3-0 FIN finland-11 – 02/21/2010 – OG – Vancouver canada1965-11

finland-11 FINLAND – 39th reign, 2 wins
1479. finland-11 FIN 5-0 GER germany1920to33and49-11 – 02/19/2010 – OG – Vancouver canada1965-11
1478. finland-11 FIN 5-1 BLR belarus-11 – 02/17/2010 – OG – Vancouver canada1965-11

1477. finland-11 FIN 4-3 SWE sweden-11 (SO) – 12/20/2009 – COC – Moscow russia-11
1476. finland-11 FIN 3-2 RUS russia-11 – 12/19/2009 – COC – Moscow russia-11

russia-11 RUSSIA – 57th reign, 3 wins
1475. russia-11 RUS 4-3 SWE sweden-11 – 12/17/2009 – COC – Moscow russia-11
1474. russia-11 RUS 4-3 CZE czech-11 (OT) – 11/08/2009 – KT – Helsinki finland-11
1473. russia-11 RUS 4-1 SWE sweden-11 – 11/07/2009 – KT – Helsinki finland-11

sweden-11 SWEDEN – 66th reign, 1 win
1472. sweden-11 SWE 4-3 CZE czech-11 – 11/05/2009 – KT – Jönköping sweden-11

czech-11 CZECHIA – 65th reign, 2 wins
1471. czech-11 CZE 3-2 RUS russia-11 (SO) – 09/06/2009 – CHG – Karlovy Vary czech-11
1470. czech-11 CZE 5-2 SWE sweden-11 – 09/05/2009 – CHG – Karlovy Vary czech-11

sweden-11 SWEDEN – 65th reign, 1 win
1469. sweden-11 SWE 4-3 RUS russia-11 (SO) – 09/03/2009 – CHG – Podolsk russia-11

russia-11 RUSSIA – 56th reign, 7 wins
1468. russia-11 RUS 2-1 CAN canada1965-11 – 05/10/2009 – WC – Bern switzerland-11 goldmedal
1467. russia-11 RUS 3-2 USA usa-11 – 05/08/2009 – WC – Bern switzerland-11
1466. russia-11 RUS 4-3 BLR belarus-11 – 05/06/2009 – WC – Bern switzerland-11
1465. russia-11 RUS 6-1 LAT latvia-11 – 05/03/2009 – WC – Bern switzerland-11
1464. russia-11 RUS 4-1 USA usa-11 – 05/02/2009 – WC – Bern switzerland-11
1463. russia-11 RUS 6-5 SWE sweden-11 (OT) – 04/30/2009 – WC – Bern switzerland-11
1462. russia-11 RUS 4-2 SUI switzerland-11 – 04/28/2009 – WC – Bern switzerland-11

switzerland-11 SWITZERLAND – 10th reign, 6 wins
1461. switzerland-11 SUI 3-2 GER germany1920to33and49-11 (OT) – 04/26/2009 – WC – Bern switzerland-11
1460. switzerland-11 SUI 1-0 FRA france-11 – 04/24/2009 – WC – Bern switzerland-11
1459. switzerland-11 SUI 5-2 USA usa-11 – 04/21/2009 – EX – Kloten switzerland-11
1458. switzerland-11 SUI 3-2 NOR norway-11 – 04/16/2009 – EX – Oslo norway-11
1457. switzerland-11 SUI 5-1 NOR norway-11 – 04/15/2009 – EX – Oslo norway-11
1456. switzerland-11 SUI 4-3 FIN finland-11 – 04/11/2009 – EX – Kreuzlingen switzerland-11

finland-11 FINLAND – 38th reign, 1 win
1455. finland-11 FIN 3-0 SUI switzerland-11 – 04/08/2009 – EX – Olten switzerland-11

switzerland-11 SWITZERLAND – 9th reign, 1 win
1454. switzerland-11 SUI 3-2 SWE sweden-11 – 04/02/2009 – EX – Malmö sweden-11

sweden-11 SWEDEN – 64th reign, 4 wins
1453. sweden-11 SWE 4-3 SUI switzerland-11 (SO)- 03/31/2009 – EX – Karlskrona sweden-11
1452. sweden-11 SWE 4-0 FIN finland-11 – 02/08/2009 – LGG – Stockholm sweden-11
1451. sweden-11 SWE 6-4 CZE czech-11 – 02/07/2009 – LGG – Stockholm sweden-11
1450. sweden-11 SWE 4-3 RUS russia-11 – 02/05/2009 – LGG – Stockholm sweden-11

russia-11 RUSSIA – 55th reign, 16 wins
1449. russia-11 RUS 6-2 SWE sweden-11 – 12/21/2008 – COC – Moscow russia-11
1448. russia-11 RUS 5-2 CZE czech-11 – 12/20/2008 – COC – Moscow russia-11
1447. russia-11 RUS 4-1 FIN finland-11 – 12/18/2008 – COC – Moscow russia-11
1446. russia-11 RUS 1-0 CZE czech-11 (SO) – 11/09/2008 – KT – Helsinki finland-11
1445. russia-11 RUS 6-2 FIN finland-11 – 11/08/2008 – KT – Helsinki finland-11
1444. russia-11 RUS 1-0 SWE sweden-11 – 11/06/2008 – KT – Moscow russia-11
1443. russia-11 RUS 5-4 CAN canada1965-11 (OT) – 05/18/2008 – WC – Québec canada1965-11 goldmedal
1442. russia-11 RUS 4-0 FIN finland-11 – 05/16/2008 – WC – Québec canada1965-11
1441. russia-11 RUS 6-0 SUI switzerland-11 – 05/14/2008 – WC – Québec canada1965-11
1440. russia-11 RUS 5-3 SUI switzerland-11 – 05/12/2008 – WC – Québec canada1965-11
1439. russia-11 RUS 3-2 SWE sweden-11 – 05/10/2008 – WC – Québec canada1965-11
1438. russia-11 RUS 4-3 BLR belarus-11 (SO) – 05/09/2008 – WC – Québec canada1965-11
1437. russia-11 RUS 4-1 DEN denmark-11 – 05/06/2008 – WC – Québec canada1965-11
1436. russia-11 RUS 5-4 CZE czech-11 (OT) – 05/04/2008 – WC – Québec canada1965-11
1435. russia-11 RUS 7-1 ITA italy-11 – 05/02/2008 – WC – Québec canada1965-11
1434. russia-11 RUS 4-1 CAN canada1965-11 – 04/28/2008 – EX – Québec canada1965-11

canada1965-11 CANADA – 54th reign, 5 wins
1433. canada1965-11 CAN 3-2 FIN finland-11 – 04/26/2008 – EX – Québec canada1965-11
1432. canada1965-11 CAN 4-2 FIN finland-11 – 05/13/2007 – WC – Moscow russia-11 goldmedal
1431. canada1965-11 CAN 4-1 SWE sweden-11 – 05/12/2007 – WC – Moscow russia-11
1430. canada1965-11 CAN 5-1 SUI switzerland-11 – 05/10/2007 – WC – Moscow russia-11
1429. canada1965-11 CAN 6-3 USA usa-11 – 05/07/2007 – WC – Mytischi russia-11

usa-11 UNITED STATES – 27th reign, 1 win
1428. usa-11 USA 3-0 GER germany1920to33and49-11 – 05/05/2007 – WC – Mytischi russia-11

germany1920to33and49-11 GERMANY – 11th reign, 1 win
1427. germany1920to33and49-11 GER 2-0 CZE czech-11 – 05/03/2007 – WC – Mytischi russia-11

czech-11 CZECHIA – 64th reign, 1 win
1426. czech-11 CZE 4-3 USA usa-11 – 05/01/2007 – WC – Mytischi russia-11

usa-11 UNITED STATES – 26th reign, 3 wins
1425. usa-11 USA 5-1 BLR belarus-11 – 04/29/2007 – WC – Mytischi russia-11
1424. usa-11 USA 6-2 AUT austria-11 – 04/27/2007 – WC – Mytischi russia-11
1423. usa-11 USA 5-3 SWE sweden-11 – 04/25/2007 – EX – Stockholm sweden-11

sweden-11 SWEDEN – 63rd reign, 3 wins
1422. sweden-11 SWE 4-2 RUS russia-11 – 04/21/2007 – EHT – Moscow russia-11
1421. sweden-11 SWE 3-2 RUS russia-11 – 04/19/2007 – EHT – Gävle sweden-11
1420. sweden-11 SWE 7-1 HUN hungary-11 – 03/30/2007 – EX – Debrecen hungary-11

hungary-11 HUNGARY – 1st reign, 1 win
1419. hungary-11 HUN 2-1 SWE sweden-11 (OT) – 03/29/2007 – EX – Budapest hungary-11

sweden-11 SWEDEN – 62nd reign, 2 wins
1418. sweden-11 SWE 1-0 FIN finland-11 – 02/11/2007 – LGG – Stockholm sweden-11
1417. sweden-11 SWE 6-2 RUS russia-11 – 02/10/2007 – LGG – Stockholm sweden-11

russia-11 RUSSIA – 54th reign, 1 win
1416. russia-11 RUS 4-3 FIN finland-11 (OT) – 02/08/2007 – LGG – Mytischi russia-11

finland-11 FINLAND – 37th reign, 1 win
1415. finland-11 FIN 2-1 SWE sweden-11 – 12/17/2006 – COC – Moscow russia-11

sweden-11 SWEDEN – 61st reign, 2 wins
1414. sweden-11 SWE 7-5 CZE czech-11 – 12/16/2006 – COC – Moscow russia-11
1413. sweden-11 SWE 1-0 RUS russia-11 (SO) – 12/14/2006 – COC – Moscow russia-11

russia-11 RUSSIA – 53rd reign, 6 wins
1412. russia-11 RUS 3-2 CZE czech-11 (SO) – 11/12/2006 – KT – Helsinki finland-11
1411. russia-11 RUS 5-4 SWE sweden-11 – 11/11/2006 – KT – Helsinki finland-11
1410. russia-11 RUS 3-2 FIN finland-11 – 11/09/2006 – KT – Helsinki finland-11
1409. russia-11 RUS 4-3 CZE czech-11 – 09/03/2006 – CPC – Liberec czech-11
1408. russia-11 RUS 4-3 FIN finland-11 – 09/02/2006 – CPC – Liberec czech-11
1407. russia-11 RUS 4-3 SWE sweden-11 (SO)- 08/31/2006 – CPC – Linköping sweden-11

sweden-11 SWEDEN – 60th reign, 2 wins
1406. sweden-11 SWE 4-0 CZE czech-11 – 05/21/2006 – WC – Rīga latvia-11 goldmedal
1405. sweden-11 SWE 5-4 CAN canada1965-11 – 05/20/2006 – WC – Rīga latvia-11

canada1965-11 CANADA – 53rd reign, 2 wins
1404. canada1965-11 CAN 4-1 SVK slovakia-11 – 05/17/2006 – WC – Rīga latvia-11
1403. canada1965-11 CAN 4-2 FIN finland-11 – 05/15/2006 – WC – Rīga latvia-11

finland-11 FINLAND – 36th reign, 5 wins
1402. finland-11 FIN 3-0 NOR norway-11 – 05/14/2006 – WC – Rīga latvia-11
1401. finland-11 FIN 4-0 USA usa-11 – 05/12/2006 – WC – Rīga latvia-11
1400. finland-11 FIN 3-3 CZE czech-11 – 05/09/2006 – WC – Rīga latvia-11
1399. finland-11 FIN 5-0 LAT latvia-11 – 05/07/2006 – WC – Rīga latvia-11
1398. finland-11 FIN 5-3 SLO slovenia-11 – 05/05/2006 – WC – Rīga latvia-11
1397. finland-11 FIN 2-0 SWE sweden-11 – 04/29/2006 – LGG – Stockholm sweden-11

sweden-11 SWEDEN – 59th reign, 5 wins
1396. sweden-11 SWE 7-6 RUS russia-11 – 04/28/2006 – LGG – Stockholm sweden-11
1395. sweden-11 SWE 3-0 CZE czech-11 – 04/26/2006 – LGG – Stockholm sweden-11
1394. sweden-11 SWE 5-1 NOR norway-11 – 04/06/2006 – EX – Oslo norway-11
1393. sweden-11 SWE 3-2 FIN finland-11 – 02/26/2006 – OG – Turin italy-11 goldmedal
1392. sweden-11 SWE 7-3 CZE czech-11 – 02/24/2006 – OG – Turin italy-11

czech-11 CZECHIA – 63rd reign, 1 win
1391. czech-11 CZE 3-1 SVK slovakia-11 – 02/22/2006 – OG – Turin italy-11

slovakia-11 SLOVAKIA – 8th reign, 5 wins
1390. slovakia-11 SVK 3-0 SWE sweden-11 – 02/21/2006 – OG – Turin italy-11
1389. slovakia-11 SVK 2-1 KAZ kazakhstan-11 – 02/19/2006 – OG – Turin italy-11
1388. slovakia-11 SVK 2-1 USA usa-11 – 02/18/2006 – OG – Turin italy-11
1387. slovakia-11 SVK 6-3 LAT latvia-11 – 02/16/2006 – OG – Turin italy-11
1386. slovakia-11 SVK 5-3 RUS russia-11 – 02/15/2006 – OG – Turin italy-11

russia-11 RUSSIA – 52nd reign, 4 wins
1385. russia-11 RUS 3-1 GER germany1920to33and49-11 – 02/11/2006 – EX – Cologne germany1920to33and49-11
1384. russia-11 RUS 2-1 SUI switzerland-11 – 02/08/2006 – EX – Lausanne switzerland-11
1383. russia-11 RUS 3-1 CZE czech-11 – 12/18/2005 – RC – Moscow russia-11
1382. russia-11 RUS 2-0 FIN finland-11 – 12/17/2005 – RC – Moscow russia-11

finland-11 FINLAND – 35th reign, 1 win
1381. finland-11 FIN 3-2 CZE czech-11 (SO) – 12/15/2005 – RC – Prague czech-11

czech-11 CZECHIA – 62nd reign, 1 win
1380. czech-11 CZE 4-1 FIN finland-11 – 12/14/2005 – EX – České Budějovice czech-11

finland-11 FINLAND – 34th reign, 1 win
1379. finland-11 FIN 2-1 SWE sweden-11 – 11/14/2005 – KT – Helsinki finland-11

sweden-11 SWEDEN – 58th reign, 4 wins
1378. sweden-11 SWE 3-2 RUS russia-11 (OT) – 11/12/2005 – KT – Helsinki finland-11
1377. sweden-11 SWE 6-3 CZE czech-11 – 11/10/2005 – KT – Jönköping sweden-11
1376. sweden-11 SWE 2-0 FIN finland-11 – 09/04/2005 – CPC – Liberec czech-11
1375. sweden-11 SWE 5-3 CZE czech-11 – 09/03/2005 – CPC – Liberec czech-11

czech-11 CZECHIA – 61st reign, 4 wins
1374. czech-11 CZE 2-1 FIN finland-11 (SO) – 09/01/2005 – CPC – Liberec czech-11
1373. czech-11 CZE 3-0 CAN canada1965-11 – 05/15/2005 – WC – Vienna austria-11 goldmedal
1372. czech-11 CZE 3-2 SWE sweden-11 (OT) – 05/14/2005 – WC – Vienna austria-11
1371. czech-11 CZE 3-2 USA usa-11 (SO) – 05/12/2005 – WC – Vienna austria-11

usa-11 UNITED STATES – 25th reign, 1 win
1370. usa-11 USA 1-1 UKR ukraine-11 – 05/09/2005 – WC – Innsbruck austria-11
1369. usa-11 USA 5-1 SWE sweden-11 – 05/08/2005 – WC – Innsbruck austria-11

sweden-11 SWEDEN – 57th reign, 1 win
1368. sweden-11 SWE 5-4 CAN canada1965-11 – 05/07/2005 – WC – Innsbruck austria-11

canada1965-11 CANADA – 52nd reign, 1 win
1367. canada1965-11 CAN 3-1 USA usa-11 – 05/05/2005 – WC – Innsbruck austria-11

usa-11 UNITED STATES – 24th reign, 5 wins
1366. usa-11 USA 3-1 LAT latvia-11 – 05/03/2005 – WC – Innsbruck austria-11
1365. usa-11 USA 7-0 SLO slovenia-11 – 05/01/2005 – WC – Innsbruck austria-11
1364. usa-11 USA 3-1 GER germany1920to33and49-11 – 04/28/2005 – EX – Rosenheim germany1920to33and49-11
1363. usa-11 USA 3-2 GER germany1920to33and49-11 – 04/26/2005 – EX – Munich germany1920to33and49-11
1362. usa-11 USA 5-4 CAN canada1965-11 – 04/22/2005 – EX – Québec canada1965-11

canada1965-11 CANADA – 51st reign, 1 win
1361. canada1965-11 CAN 3-1 USA usa-11 – 04/20/2005 – EX – Halifax canada1965-11

usa-11 UNITED STATES – 23rd reign, 1 win
1360. usa-11 USA 4-0 SVK slovakia-11 – 11/14/2004 – DC – Hanover germany1920to33and49-11

slovakia-11 SLOVAKIA – 7th reign, 2 wins
1359. slovakia-11 SVK 6-2 GER germany1920to33and49-11 – 11/13/2004 – DC – Hanover germany1920to33and49-11
1358. slovakia-11 SVK 5-3 CAN canada1965-11 – 11/12/2004 – DC – Hanover germany1920to33and49-11

canada1965-11 CANADA – 50th reign, 9 wins
1357. canada1965-11 CAN 5-2 USA usa-11 – 11/11/2004 – DC – Hanover germany1920to33and49-11
1356. canada1965-11 CAN 3-2 SUI switzerland-11 (SO) – 11/09/2004 – SWC – Kreuzlingen switzerland-11
1355. canada1965-11 CAN 3-2 FIN finland-11 – 09/14/2004 – WCH – Toronto canada1965-11 goldmedal
1354. canada1965-11 CAN 4-3 CZE czech-11 (OT) – 09/11/2004 – WCH – Toronto canada1965-11
1353. canada1965-11 CAN 5-0 SVK slovakia-11 – 09/08/2004 – WCH – Toronto canada1965-11
1352. canada1965-11 CAN 3-1 RUS russia-11 – 09/04/2004 – WCH – Toronto canada1965-11
1351. canada1965-11 CAN 5-1 SVK slovakia-11 – 09/01/2004 – WCH – Montréal canada1965-11
1350. canada1965-11 CAN 2-1 USA usa-11 – 08/31/2004 – WCH – Montréal canada1965-11
1349. canada1965-11 CAN 2-2 SVK slovakia-11 – 08/28/2004 – EX – Ottawa canada1965-11
1348. canada1965-11 CAN 3-1 USA usa-11 – 08/25/2004 – EX – Ottawa canada1965-11

usa-11 UNITED STATES – 22nd reign, 1 win
1347. usa-11 USA 3-1 CAN canada1965-11 – 08/23/2004 – EX – Columbus usa-11

canada1965-11 CANADA – 49th reign, 1 win
1346. canada1965-11 CAN 5-3 SWE sweden-11 – 05/09/2004 – WC – Prague czech-11 goldmedal

sweden-11 SWEDEN – 56th reign, 1 win
1345. sweden-11 SWE 3-2 USA usa-11 – 05/08/2004 – WC – Prague czech-11

usa-11 UNITED STATES – 21st reign, 1 win
1344. usa-11 USA 3-2 CZE czech-11 (SO) – 05/05/2004 – WC – Prague czech-11

czech-11 CZECHIA – 60th reign, 1 win
1343. czech-11 CZE 6-2 CAN canada1965-11 – 05/03/2004 – WC – Prague czech-11

canada1965-11 CANADA – 48th reign, 3 wins
1342. canada1965-11 CAN 6-1 GER germany1920to33and49-11 – 05/02/2004 – WC – Prague czech-11
1341. canada1965-11 CAN 2-0 LAT latvia-11 – 04/30/2004 – WC – Prague czech-11
1340. canada1965-11 CAN 3-1 SUI switzerland-11 – 04/28/2004 – WC – Prague czech-11

switzerland-11 SWITZERLAND – 8th reign, 2 wins
1339. switzerland-11 SUI 4-4 AUT austria-11 – 04/27/2004 – WC – Prague czech-11
1338. switzerland-11 SUI 6-0 FRA france-11 – 04/25/2004 – WC – Prague czech-11
1337. switzerland-11 SUI 3-0 SVK slovakia-11 – 04/21/2004 – EX – Bratislava slovakia-11

slovakia-11 SLOVAKIA – 6th reign, 6 wins
1336. slovakia-11 SVK 3-3 LAT latvia-11 – 04/15/2004 – EX – Rīga latvia-11
1335. slovakia-11 SVK 2-0 LAT latvia-11 – 04/14/2004 – EX – Rīga latvia-11
1334. slovakia-11 SVK 2-1 GER germany1920to33and49-11 – 04/08/2004 – EX – Piešťany slovakia-11
1333. slovakia-11 SVK 3-1 GER germany1920to33and49-11 – 04/07/2004 – EX – Nitra slovakia-11
1332. slovakia-11 SVK 2-1 POL poland-11 – 04/02/2004 – EX – Poprad slovakia-11
1331. slovakia-11 SVK 6-3 POL poland-11 – 04/01/2004 – EX – Poprad slovakia-11
1330. slovakia-11 SVK 1-1 GER germany1920to33and49-11 – 02/08/2004 – SC – Basel switzerland-11
1329. slovakia-11 SVK 2-1 CAN canada1965-11 – 02/07/2004 – SC – Basel switzerland-11

canada1965-11 CANADA – 47th reign, 6 wins
1328. canada1965-11 CAN 4-0 GER germany1920to33and49-11 – 02/06/2004 – SC – Basel switzerland-11
1327. canada1965-11 CAN 5-4 HUN hungary-11 – 02/03/2004 – EX – Székesfehérvár hungary-11
1326. canada1965-11 CAN 4-3 SVK slovakia-11 – 12/20/2003 – LC – Piešťany slovakia-11
1325. canada1965-11 CAN 1-1 SUI switzerland-11 – 12/19/2003 – LC – Piešťany slovakia-11
1324. canada1965-11 CAN 4-1 AUT austria-11 – 12/18/2003 – LC – Piešťany slovakia-11
1323. canada1965-11 CAN 5-1 CZE czech-11 – 12/16/2003 – EX – Pardubice czech-11
1322. canada1965-11 CAN 2-1 GER germany1920to33and49-11 – 11/09/2003 – DC – Hanover germany1920to33and49-11

germany1920to33and49-11 GERMANY – 10th reign, 1 win
1321. germany1920to33and49-11 GER 4-1 SUI switzerland-11 – 11/08/2003 – DC – Hanover germany1920to33and49-11

switzerland-11 SWITZERLAND – 7th reign, 1 win
1320. switzerland-11 SUI 5-3 CAN canada1965-11 – 11/07/2003 – DC – Hanover germany1920to33and49-11

canada1965-11 CANADA – 46th reign, 3 wins
1319. canada1965-11 CAN 2-2 GER germany1920to33and49-11 – 11/05/2003 – EX – Cologne germany1920to33and49-11
1318. canada1965-11 CAN 2-1 SUI switzerland-11 – 11/04/2003 – EX – Zürich switzerland-11
1317. canada1965-11 CAN 3-2 SWE sweden-11 (OT) – 05/11/2003 – WC – Helsinki finland-11 goldmedal
1316. canada1965-11 CAN 8-4 CZE czech-11 – 05/09/2003 – WC – Helsinki finland-11

czech-11 CZECHIA – 59th reign, 4 wins
1315. czech-11 CZE 3-0 RUS russia-11 – 05/07/2003 – WC – Turku finland-11
1314. czech-11 CZE 3-3 SVK slovakia-11 – 05/05/2003 – WC – Helsinki finland-11
1313. czech-11 CZE 4-0 GER germany1920to33and49-11 – 05/04/2003 – WC – Helsinki finland-11
1312. czech-11 CZE 5-2 UKR ukraine-11 – 05/02/2003 – WC – Helsinki finland-11
1311. czech-11 CZE 2-1 FIN finland-11 – 04/30/2003 – WC – Turku finland-11

finland-11 FINLAND – 33rd reign, 5 wins
1310. finland-11 FIN 12-0 SLO slovenia-11 – 04/28/2003 – WC – Tampere finland-11
1309. finland-11 FIN 5-1 AUT austria-11 – 04/26/2003 – WC – Helsinki finland-11
1308. finland-11 FIN 4-2 USA usa-11 – 04/23/2003 – EX – Turku finland-11
1307. finland-11 FIN 2-2 SWE sweden-11 – 04/20/2003 – EX – Stockholm sweden-11
1306. finland-11 FIN 4-0 SWE sweden-11 – 04/19/2003 – EX – Tampere finland-11
1305. finland-11 FIN 2-1 LAT latvia-11 – 04/13/2003 – EX – Rīga latvia-11

latvia-11 LATVIA – 1st reign, 1 win
1304. latvia-11 LAT 5-2 FIN finland-11 – 04/12/2003 – EX – Rīga latvia-11

finland-11 FINLAND – 32nd reign, 2 wins
1303. finland-11 FIN 3-2 RUS russia-11 – 04/06/2003 – EX – Moscow russia-11
1302. finland-11 FIN 4-0 RUS russia-11 – 04/05/2003 – EX – Podolsk russia-11

russia-11 RUSSIA – 51st reign, 3 wins
1301. russia-11 RUS 3-2 CZE czech-11 – 02/09/2003 – SHG – Stockholm sweden-11
1300. russia-11 RUS 4-2 SWE sweden-11 – 02/08/2003 – SHG – Stockholm sweden-11
1299. russia-11 RUS 3-2 FIN finland-11 (OT) – 02/06/2003 – SHG – Stockholm sweden-11

finland-11 FINLAND – 31st reign, 1 win
1298. finland-11 FIN 1-0 CZE czech-11 (OT) – 02/04/2003 – SHG – Helsinki finland-11

czech-11 CZECHIA – 58th reign, 1 win
1297. czech-11 CZE 3-2 FIN finland-11 – 12/21/2002 – BC – Moscow russia-11

finland-11 FINLAND – 30th reign, 5 wins
1296. finland-11 FIN 1-0 SWE sweden-11 – 12/19/2002 – BC – Moscow russia-11
1295. finland-11 FIN 3-1 RUS russia-11 – 12/18/2002 – BC – Moscow russia-11
1294. finland-11 FIN 4-1 SVK slovakia-11 – 12/16/2002 – BC – Espoo finland-11
1293. finland-11 FIN 5-3 SWE sweden-11 – 11/10/2002 – KT – Helsinki finland-11
1292. finland-11 FIN 2-0 CZE czech-11 – 11/09/2002 – KT – Helsinki finland-11

czech-11 CZECHIA – 57th reign, 2 wins
1291. czech-11 CZE 5-2 SWE sweden-11 – 11/07/2002 – KT – Pardubice czech-11
1290. czech-11 CZE 4-3 SVK slovakia-11 – 11/05/2002 – EX – Plzeň czech-11

slovakia-11 SLOVAKIA – 5th reign, 1 win
1289. slovakia-11 SVK 4-3 RUS russia-11 – 05/11/2002 – WC – Gothenburg sweden-11 goldmedal

russia-11 RUSSIA – 50th reign, 2 wins
1288. russia-11 RUS 3-2 FIN finland-11 (SO) – 05/09/2002 – WC – Gothenburg sweden-11
1287. russia-11 RUS 3-1 CZE czech-11 – 05/07/2002 – WC – Jönköping sweden-11

czech-11 CZECHIA – 56th reign, 1 win
1286. czech-11 CZE 5-1 CAN canada1965-11 – 05/05/2002 – WC – Jönköping sweden-11

canada1965-11 CANADA – 45th reign, 8 wins
1285. canada1965-11 CAN 3-2 SUI switzerland-11 – 05/03/2002 – WC – Karlstad sweden-11
1284. canada1965-11 CAN 3-1 GER germany1920to33and49-11 – 05/02/2002 – WC – Karlstad sweden-11
1283. canada1965-11 CAN 2-1 USA usa-11 – 04/30/2002 – WC – Karlstad sweden-11
1282. canada1965-11 CAN 5-0 ITA italy-11 – 04/29/2002 – WC – Karlstad sweden-11
1281. canada1965-11 CAN 4-1 LAT latvia-11 – 04/27/2002 – WC – Karlstad sweden-11
1280. canada1965-11 CAN 4-3 SWE sweden-11 – 04/24/2002 – EX – Jönköping sweden-11
1279. canada1965-11 CAN 5-2 USA usa-11 – 02/24/2002 – OG – West Valley City usa-11 goldmedal
1278. canada1965-11 CAN 7-1 BLR belarus-11 – 02/22/2002 – OG – West Valley City usa-11

belarus-11 BELARUS – 2nd reign, 1 win
1277. belarus-11 BLR 4-3 SWE sweden-11 – 02/20/2002 – OG – West Valley City usa-11

sweden-11 SWEDEN – 55th reign, 2 wins
1276. sweden-11 SWE 7-1 GER germany1920to33and49-11 – 02/18/2002 – OG – Provo usa-11
1275. sweden-11 SWE 2-1 CZE czech-11 – 02/17/2002 – OG – West Valley City usa-11

czech-11 CZECHIA – 55th reign, 2 wins
1274. czech-11 CZE 8-2 GER germany1920to33and49-11 – 02/15/2002 – OG – Provo usa-11
1273. czech-11 CZE 4-0 RUS russia-11 – 12/22/2001 – BC – Moscow russia-11

russia-11 RUSSIA – 49th reign, 3 wins
1272. russia-11 RUS 3-1 SWE sweden-11 – 12/20/2001 – BC – Moscow russia-11
1271. russia-11 RUS 3-2 FIN finland-11 (SO) – 12/18/2001 – BC – Moscow russia-11
1270. russia-11 RUS 3-2 CZE czech-11 – 11/11/2001 – SHG – Stockholm sweden-11

czech-11 CZECHIA – 54th reign, 3 wins
1269. czech-11 CZE 3-1 CAN canada1965-11 – 11/09/2001 – SHG – Stockholm sweden-11
1268. czech-11 CZE 2-1 SWE sweden-11 (OT) – 11/08/2001 – SHG – Stockholm sweden-11
1267. czech-11 CZE 7-2 FIN finland-11 – 11/06/2001 – SHG – Helsinki finland-11

finland-11 FINLAND – 29th reign, 2 wins
1266. finland-11 FIN 3-0 CZE czech-11 – 09/09/2001 – CPC – Zlín czech-11
1265. finland-11 FIN 2-1 RUS russia-11 – 09/08/2001 – CPC – Zlín czech-11

russia-11 RUSSIA – 48th reign, 1 win
1264. russia-11 RUS 5-4 CZE czech-11 (SO) – 09/06/2001 – CPC – Zlín czech-11

czech-11 CZECHIA – 53rd reign, 1 win
1263. czech-11 CZE 2-2 POL poland-11 – 09/04/2001 – EX – Oświęcim poland-11
1262. czech-11 CZE 3-2 FIN finland-11 (OT) – 05/13/2001 – WC – Hanover germany1920to33and49-11 goldmedal

finland-11 FINLAND – 28th reign, 3 wins
1261. finland-11 FIN 3-1 USA usa-11 – 05/12/2001 – WC – Hanover germany1920to33and49-11
1260. finland-11 FIN 4-1 GER germany1920to33and49-11 – 05/10/2001 – WC – Cologne germany1920to33and49-11
1259. finland-11 FIN 5-4 SWE sweden-11 – 05/08/2001 – WC – Cologne germany1920to33and49-11

sweden-11 SWEDEN – 54th reign, 5 wins
1258. sweden-11 SWE 3-1 SVK slovakia-11 – 05/05/2001 – WC – Cologne germany1920to33and49-11
1257. sweden-11 SWE 11-0 AUT austria-11 – 05/04/2001 – WC – Cologne germany1920to33and49-11
1256. sweden-11 SWE 2-2 USA usa-11 – 05/02/2001 – WC – Cologne germany1920to33and49-11
1255. sweden-11 SWE 5-0 UKR ukraine-11 – 05/01/2001 – WC – Cologne germany1920to33and49-11
1254. sweden-11 SWE 5-2 LAT latvia-11 – 04/29/2001 – WC – Cologne germany1920to33and49-11
1253. sweden-11 SWE 4-3 SVK slovakia-11 – 04/26/2001 – EX – Gävle sweden-11

slovakia-11 SLOVAKIA – 4th reign, 3 wins
1252. slovakia-11 SVK 2-1 LAT latvia-11 – 04/19/2001 – EX – Liptovský Mikuláš slovakia-11
1251. slovakia-11 SVK 3-0 LAT latvia-11 – 04/18/2001 – EX – Liptovský Mikuláš slovakia-11
1250. slovakia-11 SVK 8-4 CZE czech-11 – 04/11/2001 – EX – Martin slovakia-11

czech-11 CZECHIA – 52nd reign, 2 wins
1249. czech-11 CZE 3-1 SVK slovakia-11 – 04/10/2001 – EX – Olomouc czech-11
1248. czech-11 CZE 5-3 SUI switzerland-11 – 04/07/2001 – EX – Příbram czech-11

switzerland-11 SWITZERLAND – 6th reign, 1 win
1247. switzerland-11 SUI 4-2 CZE czech-11 – 04/06/2001 – EX – Mladá Boleslav czech-11

czech-11 CZECHIA – 51st reign, 1 win
1246. czech-11 CZE 2-1 SWE sweden-11 – 02/10/2001 – SHG – Stockholm sweden-11

sweden-11 SWEDEN – 53rd reign, 1 win
1245. sweden-11 SWE 2-1 RUS russia-11 – 02/08/2001 – SHG – Stockholm sweden-11

russia-11 RUSSIA – 47th reign, 4 wins
1244. russia-11 RUS 2-1 CZE czech-11 – 02/06/2001 – SHG – Pardubice czech-11
1243. russia-11 RUS 1-0 SWE sweden-11 – 12/20/2000 – BC – Moscow russia-11
1242. russia-11 RUS 5-4 CZE czech-11 (SO) – 12/18/2000 – BC – Moscow russia-11
1241. russia-11 RUS 2-1 FIN finland-11 – 12/17/2000 – BC – Moscow russia-11

finland-11 FINLAND – 27th reign, 1 win
1240. finland-11 FIN 3-3 SWE sweden-11 – 12/15/2000 – EX – Helsinki finland-11
1239. finland-11 FIN 6-1 SWE sweden-11 – 11/12/2000 – KT – Helsinki finland-11

sweden-11 SWEDEN – 52nd reign, 2 wins
1238. sweden-11 SWE 2-0 RUS russia-11 – 11/11/2000 – KT – Helsinki finland-11
1237. sweden-11 SWE 4-1 CZE czech-11 – 11/09/2000 – KT – Jönköping sweden-11

czech-11 CZECHIA – 50th reign, 1 win
1236. czech-11 CZE 2-1 FIN finland-11 (OT) – 09/03/2000 – CPC – Zlín czech-11

finland-11 FINLAND – 26th reign, 1 win
1235. finland-11 FIN 4-2 SWE sweden-11 – 09/01/2000 – CPC – Zlín czech-11

sweden-11 SWEDEN – 51st reign, 1 win
1234. sweden-11 SWE 3-2 CZE czech-11 – 08/31/2000 – CPC – Zlín czech-11

czech-11 CZECHIA – 49th reign, 5 wins
1233. czech-11 CZE 6-1 SVK slovakia-11 – 08/29/2000 – EX – Brno czech-11
1232. czech-11 CZE 5-3 SVK slovakia-11 – 05/14/2000 – WC – Saint Petersburg russia-11 goldmedal
1231. czech-11 CZE 2-1 CAN canada1965-11 – 05/12/2000 – WC – Saint Petersburg russia-11
1230. czech-11 CZE 3-1 LAT latvia-11 – 05/11/2000 – WC – Saint Petersburg russia-11
1229. czech-11 CZE 6-2 SVK slovakia-11 – 05/08/2000 – WC – Saint Petersburg russia-11

slovakia-11 SLOVAKIA – 3rd reign, 4 wins
1228. slovakia-11 SVK 9-1 NOR norway-11 – 05/06/2000 – WC – Saint Petersburg russia-11
1227. slovakia-11 SVK 2-2 FIN finland-11 – 05/04/2000 – WC – Saint Petersburg russia-11
1226. slovakia-11 SVK 6-2 ITA italy-11 – 05/02/2000 – WC – Saint Petersburg russia-11
1225. slovakia-11 SVK 2-0 AUT austria-11 – 04/30/2000 – WC – Saint Petersburg russia-11
1224. slovakia-11 SVK 2-2 SWE sweden-11 – 04/25/2000 – EX – Västerås sweden-11
1223. slovakia-11 SVK 4-1 BLR belarus-11 – 04/19/2000 – EX – Spišská Nová Ves slovakia-11

belarus-11 BELARUS – 1st reign, 1 win
1222. belarus-11 BLR 4-3 SVK slovakia-11 – 04/18/2000 – EX – Spišská Nová Ves slovakia-11

slovakia-11 SLOVAKIA – 2nd reign, 1 win
1221. slovakia-11 SVK 2-1 CZE czech-11 – 04/12/2000 – EX – Ostrava czech-11

czech-11 CZECHIA – 48th reign, 2 wins
1220. czech-11 CZE 5-5 SVK slovakia-11 – 04/11/2000 – EX – Žilina slovakia-11
1219. czech-11 CZE 3-1 SWE sweden-11 – 02/12/2000 – SHG – Stockholm sweden-11
1218. czech-11 CZE 1-0 CAN canada1965-11 – 02/11/2000 – SHG – Stockholm sweden-11

canada1965-11 CANADA – 44th reign, 1 win
1217. canada1965-11 CAN 3-2 FIN finland-11 – 02/10/2000 – SHG – Stockholm sweden-11

finland-11 FINLAND – 25th reign, 1 win
1216. finland-11 FIN 3-1 CZE czech-11 – 02/09/2000 – SHG – Stockholm sweden-11

czech-11 CZECHIA – 47th reign, 1 win
1215. czech-11 CZE 6-2 RUS russia-11 – 02/08/2000 – SHG – Stockholm sweden-11

russia-11 RUSSIA – 46th reign, 2 wins
1214. russia-11 RUS 7-5 SWE sweden-11 – 12/21/1999 – BC – Moscow russia-11
1213. russia-11 RUS 1-1 CZE czech-11 – 12/19/1999 – BC – Moscow russia-11
1212. russia-11 RUS 3-2 FIN finland-11 – 12/18/1999 – BC – Moscow russia-11

finland-11 FINLAND – 24th reign, 4 wins
1211. finland-11 FIN 3-1 CZE czech-11 – 12/17/1999 – BC – Moscow russia-11
1210. finland-11 FIN 3-2 SWE sweden-11 – 11/14/1999 – KT – Espoo finland-11
1209. finland-11 FIN 2-1 RUS russia-11 – 11/13/1999 – KT – Espoo finland-11
1208. finland-11 FIN 3-2 CZE czech-11 – 11/11/1999 – KT – Espoo finland-11

czech-11 CZECHIA – 46th reign, 5 wins
1207. czech-11 CZE 3-0 FIN finland-11 – 09/05/1999 – CPC – Zlín czech-11
1206. czech-11 CZE 3-1 RUS russia-11 – 09/04/1999 – CPC – Zlín czech-11
1205. czech-11 CZE 3-2 SWE sweden-11 – 09/02/1999 – CPC – Zlín czech-11
1204. czech-11 CZE 6-3 SVK slovakia-11 – 08/31/1999 – EX – Znojmo czech-11
1203. czech-11 CZE 1-0 FIN finland-11 (OT) – 05/16/1999 – WC – Lillehammer norway-11 goldmedal
The 1999 World Championships medal rounds were each played as a two-game series, with any tied series resulting in a 20 minute “mini-game” immediately following the second game to crown a winner, with a shootout to follow in the event of a tie. The IIHF counts these “mini-games” as individual games, which the Czechia defeated Canada in the semi-final in a shootout, and Finland in the gold medal game in overtime.

finland-11 FINLAND – 23rd reign, 1 win
1202. finland-11 FIN 4-1 CZE czech-11 – 05/16/1999 – WC – Lillehammer norway-11

czech-11 CZECHIA – 45th reign, 3 wins
1201. czech-11 CZE 3-1 FIN finland-11 – 05/15/1999 – WC – Lillehammer norway-11
1200. czech-11 CZE 1-0 CAN canada1965-11 (SO) – 05/13/1999 – WC – Lillehammer norway-11
1199. czech-11 CZE 6-4 CAN canada1965-11 – 05/13/1999 – WC – Lillehammer norway-11

canada1965-11 CANADA – 43rd reign, 1 win
1198. canada1965-11 CAN 2-1 CZE czech-11 – 05/12/1999 – WC – Lillehammer norway-11

czech-11 CZECHIA – 44th reign, 1 win
1197. czech-11 CZE 2-0 SWE sweden-11 – 05/10/1999 – WC – Oslo norway-11

sweden-11 SWEDEN – 50th reign, 4 wins
1196. sweden-11 SWE 4-1 RUS russia-11 – 05/08/1999 – WC – Oslo norway-11
1195. sweden-11 SWE 2-1 SVK slovakia-11 – 05/07/1999 – WC – Oslo norway-11
1194. sweden-11 SWE 4-3 LAT latvia-11 – 05/05/1999 – WC – Oslo norway-11
1193. sweden-11 SWE 6-1 SUI switzerland-11 – 05/03/1999 – WC – Oslo norway-11

switzerland-11 SWITZERLAND – 5th reign, 5 wins
1192. switzerland-11 SUI 5-3 LAT latvia-11 – 05/01/1999 – WC – Oslo norway-11
1191. switzerland-11 SUI 5-1 ITA italy-11 – 04/27/1999 – EX – Bellinzona switzerland-11
1190. switzerland-11 SUI 5-2 NOR norway-11 – 04/24/1999 – EX – La Chaux-de-Fonds switzerland-11
1189. switzerland-11 SUI 5-3 NOR norway-11 – 04/23/1999 – EX – Geneva switzerland-11
1188. switzerland-11 SUI 3-3 FIN finland-11 – 04/18/1999 – EX – Herisau switzerland-11
1187. switzerland-11 SUI 4-2 FIN finland-11 – 04/17/1999 – EX – Zürich switzerland-11

finland-11 FINLAND – 22nd reign, 3 wins
1186. finland-11 FIN 6-0 NOR norway-11 – 04/11/1999 – EX – Savonlinna finland-11
1185. finland-11 FIN 5-2 NOR norway-11 – 04/10/1999 – EX – Joensuu finland-11
1184. finland-11 FIN 5-4 SWE sweden-11 – 02/14/1999 – SHG – Stockholm sweden-11

sweden-11 SWEDEN – 49th reign, 4 wins
1183. sweden-11 SWE 1-1 CZE czech-11 – 02/12/1999 – SHG – Stockholm sweden-11
1182. sweden-11 SWE 5-0 RUS russia-11 – 02/10/1999 – SHG – Stockholm sweden-11
1181. sweden-11 SWE 4-1 CAN canada1965-11 – 02/09/1999 – SHG – Stockholm sweden-11
1180. sweden-11 SWE 5-3 RUS russia-11 – 12/19/1998 – BC – Moscow russia-11
1179. sweden-11 SWE 2-1 CZE czech-11 – 12/18/1998 – BC – Moscow russia-11

czech-11 CZECHIA – 43rd reign, 1 win
1178. czech-11 CZE 5-3 RUS russia-11 – 12/17/1998 – BC – Moscow russia-11

russia-11 RUSSIA – 45th reign, 2 wins
1177. russia-11 RUS 3-1 CAN canada1965-11 – 12/15/1998 – BC – Moscow russia-11
1176. russia-11 RUS 2-2 CZE czech-11 – 11/07/1998 – KT – Helsinki finland-11
1175. russia-11 RUS 4-1 SWE sweden-11 – 11/06/1998 – KT – Helsinki finland-11

sweden-11 SWEDEN – 48th reign, 13 wins
1174. sweden-11 SWE 2-2 CZE czech-11 – 11/05/1998 – KT – Helsinki finland-11
1173. sweden-11 SWE 3-2 FIN finland-11 – 11/03/1998 – EX – Lahti finland-11
1172. sweden-11 SWE 0-0 CZE czech-11 – 09/06/1998 – CPC – Zlín czech-11
1171. sweden-11 SWE 4-1 FIN finland-11 – 09/04/1998 – CPC – Zlín czech-11
1170. sweden-11 SWE 3-0 RUS russia-11 – 09/03/1998 – CPC – Zlín czech-11
1169. sweden-11 SWE 0-0 FIN finland-11 – 05/17/1998 – WC – Zürich switzerland-11 goldmedal
1168. sweden-11 SWE 1-0 FIN finland-11 – 05/16/1998 – WC – Zürich switzerland-11
1167. sweden-11 SWE 7-2 SUI switzerland-11 – 05/14/1998 – WC – Zürich switzerland-11
1166. sweden-11 SWE 4-1 SUI switzerland-11 – 05/12/1998 – WC – Zürich switzerland-11
1165. sweden-11 SWE 7-1 CAN canada1965-11 – 05/10/1998 – WC – Zürich switzerland-11
1164. sweden-11 SWE 2-1 BLR belarus-11 – 05/09/1998 – WC – Zürich switzerland-11
1163. sweden-11 SWE 1-0 FIN finland-11 – 05/07/1998 – WC – Zürich switzerland-11
1162. sweden-11 SWE 6-1 USA usa-11 – 05/06/1998 – WC – Zürich switzerland-11
1161. sweden-11 SWE 4-2 SUI switzerland-11 – 05/04/1998 – WC – Zürich switzerland-11
1160. sweden-11 SWE 6-1 FRA france-11 – 05/02/1998 – WC – Zürich switzerland-11
1159. sweden-11 SWE 2-2 FIN finland-11 – 04/26/1998 – SHG – Stockholm sweden-11
1158. sweden-11 SWE 4-2 CZE czech-11 – 04/24/1998 – SHG – Stockholm sweden-11

czech-11 CZECHIA – 42nd reign, 3 wins
1157. czech-11 CZE 4-3 RUS russia-11 – 04/23/1998 – SHG – Stockholm sweden-11
1156. czech-11 CZE 3-2 CAN canada1965-11 – 04/22/1998 – SHG – Stockholm sweden-11
1155. czech-11 CZE 3-2 FIN finland-11 – 04/21/1998 – SHG – Stockholm sweden-11

finland-11 FINLAND – 21st reign, 2 wins
1154. finland-11 FIN 6-3 CZE czech-11 – 04/19/1998 – EX – Helsinki finland-11
1153. finland-11 FIN 3-2 CZE czech-11 – 04/17/1998 – EX – Helsinki finland-11

czech-11 CZECHIA – 41st reign, 1 win
1152. czech-11 CZE 1-0 RUS russia-11 – 02/22/1998 – OG – Nagano japan-11 goldmedal

russia-11 RUSSIA – 44th reign, 5 wins
1151. russia-11 RUS 7-4 FIN finland-11 – 02/20/1998 – OG – Nagano japan-11
1150. russia-11 RUS 4-1 BLR belarus-11 – 02/18/1998 – OG – Nagano japan-11
1149. russia-11 RUS 2-1 CZE czech-11 – 02/16/1998 – OG – Nagano japan-11
1148. russia-11 RUS 4-3 FIN finland-11 – 02/15/1998 – OG – Nagano japan-11
1147. russia-11 RUS 9-2 KAZ kazakhstan-11 – 02/13/1998 – OG – Nagano japan-11

kazakhstan-11 KAZAKHSTAN – 1st reign, 3 wins
1146. kazakhstan-11 KAZ 4-3 SVK slovakia-11 – 02/10/1998 – OG – Nagano japan-11
1145. kazakhstan-11 KAZ 5-5 AUT austria-11 – 02/08/1998 – OG – Nagano japan-11
1144. kazakhstan-11 KAZ 5-3 ITA italy-11 – 02/07/1998 – OG – Nagano japan-11
1143. kazakhstan-11 KAZ 4-2 NOR norway-11 – 11/09/1997 – WCQ – Klagenfurt austria-11

norway-11 NORWAY – 2nd reign, 3 wins
1142. norway-11 NOR 3-0 POL poland-11 – 11/08/1997 – WCQ – Klagenfurt austria-11
1141. norway-11 NOR 3-1 AUT austria-11 – 11/06/1997 – WCQ – Klagenfurt austria-11
1140. norway-11 NOR 2-2 JPN japan-11 – 11/04/1997 – EX – Oslo norway-11
1139. norway-11 NOR 3-3 JPN japan-11 – 11/03/1997 – EX – Hamar norway-11
1138. norway-11 NOR 5-3 JPN japan-11 – 11/01/1997 – EX – Sarpsborg norway-11

japan-11 JAPAN – 1st reign, 1 win
1137. japan-11 JPN 5-3 CAN canada1965-11 – 10/11/1997 – EX – Drumheller canada1965-11

canada1965-11 CANADA – 42nd reign, 8 wins
1136. canada1965-11 CAN 3-3 JPN japan-11 – 10/10/1997 – EX – Olds canada1965-11
1135. canada1965-11 CAN 4-1 JPN japan-11 – 10/07/1997 – EX – Calgary canada1965-11
1134. canada1965-11 CAN 5-2 NOR norway-11 – 10/02/1997 – EX – Kenora canada1965-11
1133. canada1965-11 CAN 5-0 NOR norway-11 – 09/30/1997 – EX – Flin Flon canada1965-11
1132. canada1965-11 CAN 4-3 NOR norway-11 – 09/29/1997 – EX – The Pas canada1965-11
1131. canada1965-11 CAN 5-1 NOR norway-11 – 09/28/1997 – EX – Brandon canada1965-11
1130. canada1965-11 CAN 5-2 NOR norway-11 – 09/26/1997 – EX – Winnipeg canada1965-11
1129. canada1965-11 CAN 2-1 SWE sweden-11 – 05/14/1997 – WC – Helsinki finland-11 goldmedal
1128. canada1965-11 CAN 3-1 SWE sweden-11 – 05/13/1997 – WC – Helsinki finland-11

sweden-11 SWEDEN – 47th reign, 1 win
1127. sweden-11 SWE 3-2 CAN canada1965-11 – 05/11/1997 – WC – Helsinki finland-11

canada1965-11 CANADA – 41st reign, 1 win
1126. canada1965-11 CAN 2-1 RUS russia-11 – 05/09/1997 – WC – Helsinki finland-11

russia-11 RUSSIA – 43rd reign, 1 win
1125. russia-11 RUS 1-1 USA usa-11 – 05/06/1997 – WC – Helsinki finland-11
1124. russia-11 RUS 4-1 SWE sweden-11 – 05/05/1997 – WC – Helsinki finland-11

sweden-11 SWEDEN – 46th reign, 3 wins
1123. sweden-11 SWE 3-1 USA usa-11 – 05/03/1997 – WC – Turku finland-11
1122. sweden-11 SWE 1-1 LAT latvia-11 – 05/02/1997 – WC – Turku finland-11
1121. sweden-11 SWE 4-1 NOR norway-11 – 04/29/1997 – WC – Turku finland-11
1120. sweden-11 SWE 7-2 CAN canada1965-11 – 04/27/1997 – WC – Turku finland-11

canada1965-11 CANADA – 40th reign, 3 wins
1119. canada1965-11 CAN 7-0 NOR norway-11 – 04/26/1997 – WC – Turku finland-11
1118. canada1965-11 CAN 5-1 USA usa-11 – 04/20/1997 – EX – Winnipeg canada1965-11
1117. canada1965-11 CAN 4-2 USA usa-11 – 04/19/1997 – EX – Winnipeg canada1965-11

usa-11 UNITED STATES – 20th reign, 2 wins
1116. usa-11 USA 5-2 CAN canada1965-11 – 09/14/1996 – WCH – Montréal canada1965-11 goldmedal
1115. usa-11 USA 5-2 CAN canada1965-11 – 09/12/1996 – WCH – Montréal canada1965-11

canada1965-11 CANADA – 39th reign, 1 win
1114. canada1965-11 CAN 4-3 USA usa-11 (OT) – 09/10/1996 – WCH – Philadelphia usa-11

usa-11 UNITED STATES – 19th reign, 4 wins
1113. usa-11 USA 5-2 RUS russia-11 – 09/08/1996 – WCH – Ottawa canada1965-11
1112. usa-11 USA 9-3 SVK slovakia-11 – 09/03/1996 – WCH – New York usa-11
1111. usa-11 USA 5-2 RUS russia-11 – 09/02/1996 – WCH – New York usa-11
1110. usa-11 USA 5-3 CAN canada1965-11 – 08/31/1996 – WCH – Philadelphia usa-11

canada1965-11 CANADA – 38th reign, 1 win
1109. canada1965-11 CAN 5-3 RUS russia-11 – 08/29/1996 – WCH – Vancouver canada1965-11

russia-11 RUSSIA – 42nd reign, 3 wins
1108. russia-11 RUS 4-4 CAN canada1965-11 – 08/25/1996 – EX – Calgary canada1965-11
1107. russia-11 RUS 6-4 USA usa-11 – 08/23/1996 – EX – Detroit usa-11
1106. russia-11 RUS 4-2 GER germany1920to33and49-11 – 08/20/1996 – EX – Landshut germany1920to33and49-11
1105. russia-11 RUS 3-2 SWE sweden-11 – 08/18/1996 – EX – Stockholm sweden-11

sweden-11 SWEDEN – 45th reign, 1 win
1104. sweden-11 SWE 4-2 CZE czech-11 – 08/16/1996 – EX – Zlín czech-11

czech-11 CZECHIA – 40th reign, 6 wins
1103. czech-11 CZE 4-2 CAN canada1965-11 – 05/05/1996 – WC – Vienna austria-11 goldmedal
1102. czech-11 CZE 5-0 USA usa-11 – 05/03/1996 – WC – Vienna austria-11
1101. czech-11 CZE 6-1 GER germany1920to33and49-11 – 05/01/1996 – WC – Vienna austria-11
1100. czech-11 CZE 9-5 ITA italy-11 – 04/28/1996 – WC – Vienna austria-11
1099. czech-11 CZE 9-2 FRA france-11 – 04/27/1996 – WC – Vienna austria-11
1098. czech-11 CZE 2-2 NOR norway-11 – 04/24/1996 – WC – Vienna austria-11
1097. czech-11 CZE 4-2 FIN finland-11 – 04/23/1996 – WC – Vienna austria-11

finland-11 FINLAND – 20th reign, 1 win
1096. finland-11 FIN 1-1 NOR norway-11 – 04/21/1996 – WC – Vienna austria-11
1095. finland-11 FIN 3-3 SWE sweden-11 – 04/17/1996 – EX – Stockholm sweden-11
1094. finland-11 FIN 4-1 SWE sweden-11 – 04/16/1996 – EX – Gothenburg sweden-11

sweden-11 SWEDEN – 44th reign, 2 wins
1093. sweden-11 SWE 7-3 CZE czech-11 – 04/11/1996 – EX – Luleå sweden-11
1092. sweden-11 SWE 3-3 CZE czech-11 – 04/10/1996 – EX – Stockholm sweden-11
1091. sweden-11 SWE 7-1 NOR norway-11 – 04/02/1996 – EX – Gjøvik norway-11

norway-11 NORWAY – 1st reign, 2 wins
1090. norway-11 NOR 3-3 SWE sweden-11 – 04/01/1996 – EX – Hamar norway-11
1089. norway-11 NOR 4-3 FRA france-11 – 02/07/1996 – RIC – Oslo norway-11
1088. norway-11 NOR 3-1 GER germany1920to33and49-11 – 02/05/1996 – RIC – Oslo norway-11

germany1920to33and49-11 GERMANY – 9th reign, 2 wins
1087. germany1920to33and49-11 GER 4-4 ITA italy-11 – 12/21/1995 – EX – Memmingen germany1920to33and49-11
1086. germany1920to33and49-11 GER 5-1 ITA italy-11 – 12/20/1995 – EX – Landsberg germany1920to33and49-11
1085. germany1920to33and49-11 GER 2-1 CZE czech-11 (SO) – 11/05/1995 – DC – Stuttgart germany1920to33and49-11

czech-11 CZECHIA – 39th reign, 1 win
1084. czech-11 CZE 3-0 SWE sweden-11 – 11/04/1995 – DC – Stuttgart germany1920to33and49-11

sweden-11 SWEDEN – 43rd reign, 1 win
1083. sweden-11 SWE 5-4 FIN finland-11 – 11/02/1995 – DC – Stuttgart germany1920to33and49-11

finland-11 FINLAND – 19th reign, 3 wins
1082. finland-11 FIN 5-4 GER germany1920to33and49-11 – 09/03/1995 – EX – Chemnitz germany1920to33and49-11
1081. finland-11 FIN 5-1 GER germany1920to33and49-11 – 09/02/1995 – EX – Berlin germany1920to33and49-11
1080. finland-11 FIN 4-1 SWE sweden-11 – 05/07/1995 – WC – Stockholm sweden-11 goldmedal

sweden-11 SWEDEN – 42nd reign, 1 win
1079. sweden-11 SWE 3-2 CAN canada1965-11 (OT) – 05/05/1995 – WC – Stockholm sweden-11

canada1965-11 CANADA – 37th reign, 1 win
1078. canada1965-11 CAN 4-1 USA usa-11 – 05/03/1995 – WC – Stockholm sweden-11

usa-11 UNITED STATES – 18th reign, 1 win
1077. usa-11 USA 4-4 FIN finland-11 – 04/30/1995 – WC – Stockholm sweden-11
1076. usa-11 USA 2-2 SWE sweden-11 – 04/28/1995 – WC – Stockholm sweden-11
1075. usa-11 USA 4-2 CZE czech-11 – 04/27/1995 – WC – Stockholm sweden-11

czech-11 CZECHIA – 38th reign, 3 wins
1074. czech-11 CZE 5-2 AUT austria-11 – 04/26/1995 – WC – Stockholm sweden-11
1073. czech-11 CZE 3-0 FIN finland-11 – 04/23/1995 – WC – Stockholm sweden-11
1072. czech-11 CZE 3-2 SWE sweden-11 – 04/19/1995 – EX – Prague czech-11

sweden-11 SWEDEN – 41st reign, 6 wins
1071. sweden-11 SWE 3-2 CZE czech-11 – 04/18/1995 – EX – Litvínov czech-11
1070. sweden-11 SWE 4-2 FIN finland-11 – 04/12/1995 – EX – Skellefteå sweden-11
1069. sweden-11 SWE 4-2 FIN finland-11 – 04/11/1995 – EX – Stockholm sweden-11
1068. sweden-11 SWE 6-2 NOR norway-11 – 04/05/1995 – EX – Sarpsborg norway-11
1067. sweden-11 SWE 1-0 NOR norway-11 – 04/04/1995 – EX – Gjøvik norway-11
1066. sweden-11 SWE 5-0 RUS russia-11 – 02/12/1995 – SHG – Stockholm sweden-11

russia-11 RUSSIA – 41st reign, 4 wins
1065. russia-11 RUS 6-0 CAN canada1965-11 – 02/10/1995 – SHG – Stockholm sweden-11
1064. russia-11 RUS 4-4 CZE czech-11 – 02/09/1995 – SHG – Stockholm sweden-11
1063. russia-11 RUS 1-0 CZE czech-11 – 12/20/1994 – IT – Moscow russia-11
1062. russia-11 RUS 8-1 ITA italy-11 – 12/18/1994 – IT – Moscow russia-11
1061. russia-11 RUS 2-2 FIN finland-11 – 12/17/1994 – IT – Moscow russia-11
1060. russia-11 RUS 7-2 FRA france-11 – 12/16/1994 – IT – Moscow russia-11

france-11 FRANCE7th reign, 2 wins
1059. france-11 FRA 8-2 DEN denmark-11 – 11/02/1994 – EX – Copenhagen denmark-11
1058. france-11 FRA 4-3 CAN canada1965-11 – 10/19/1994 – EX – Wilcox canada1965-11

canada1965-11 CANADA – 36th reign, 2 wins
1057. canada1965-11 CAN 5-3 FRA france-11 – 10/18/1994 – EX – Swan River canada1965-11
1056. canada1965-11 CAN 6-2 FRA france-11 – 10/16/1994 – EX – Melville canada1965-11

france-11 FRANCE – 6th reign, 2 wins
1055. france-11 FRA 3-2 CAN canada1965-11 (SO) – 10/15/1994 – EX – Tisdale canada1965-11
1054. france-11 FRA 5-1 CAN canada1965-11 – 10/13/1994 – EX – Calgary canada1965-11

canada1965-11 CANADA – 35th reign, 2 wins
1053. canada1965-11 CAN 2-1 FIN finland-11 (SO) – 05/08/1994 – WC – Assago italy-11 goldmedal
1052. canada1965-11 CAN 6-0 SWE sweden-11 – 05/07/1994 – WC – Assago italy-11

sweden-11 SWEDEN – 40th reign, 3 wins
1051. sweden-11 SWE 7-2 ITA italy-11 – 05/05/1994 – WC – Assago italy-11
1050. sweden-11 SWE 4-1 CZE czech-11 – 05/02/1994 – WC – Canazei italy-11
1049. sweden-11 SWE 6-2 USA usa-11 – 04/30/1994 – WC – Canazei italy-11

usa-11 UNITED STATES – 17th reign, 1 win
1048. usa-11 USA 5-3 CZE czech-11 – 04/28/1994 – WC – Canazei italy-11

czech-11 CZECHIA – 37th reign, 2 wins
1047. czech-11 CZE 5-2 FRA france-11 – 04/26/1994 – WC – Canazei italy-11
1046. czech-11 CZE 4-4 FIN finland-11 – 04/25/1994 – WC – Canazei italy-11
1045. czech-11 CZE 4-3 SWE sweden-11 – 04/22/1994 – EX – České Budějovice czech-11

sweden-11 SWEDEN – 39th reign, 6 wins
1044. sweden-11 SWE 3-1 CZE czech-11 – 04/21/1994 – EX – Mariánské Lázně czech-11
1043. sweden-11 SWE 8-2 FIN finland-11 – 04/19/1994 – EX – Västerås sweden-11
1042. sweden-11 SWE 4-1 FIN finland-11 – 04/17/1994 – EX – Stockholm sweden-11
1041. sweden-11 SWE 8-2 NOR norway-11 – 04/12/1994 – EX – Oslo norway-11
1040. sweden-11 SWE 1-1 NOR norway-11 – 04/11/1994 – EX – Gjøvik norway-11
1039. sweden-11 SWE 3-2 CAN canada1965-11 (SO) – 02/27/1994 – OG – Lillehammer norway-11 goldmedal
1038. sweden-11 SWE 4-3 RUS russia-11 – 02/25/1994 – OG – Lillehammer norway-11

russia-11 RUSSIA – 40th reign, 1 win
1037. russia-11 RUS 3-2 SVK slovakia-11 (OT) – 02/23/1994 – OG – Lillehammer norway-11

slovakia-11 SLOVAKIA – 1st reign, 13 wins
1036. slovakia-11 SVK 6-2 FRA france-11 – 02/21/1994 – OG – Gjøvik norway-11
1035. slovakia-11 SVK 3-1 CAN canada1965-11 – 02/19/1994 – OG – Lillehammer norway-11
1034. slovakia-11 SVK 10-4 ITA italy-11 – 02/17/1994 – OG – Lillehammer norway-11
1033. slovakia-11 SVK 3-3 USA usa-11 – 02/15/1994 – OG – Gjøvik norway-11
1032. slovakia-11 SVK 4-4 SWE sweden-11 – 02/13/1994 – OG – Lillehammer norway-11
1031. slovakia-11 SVK 9-0 DEN denmark-11 – 02/06/1994 – EX – Senica slovakia-11
1030. slovakia-11 SVK 11-1 DEN denmark-11 – 02/05/1994 – EX – Bratislava slovakia-11
1029. slovakia-11 SVK 5-5 USA usa-11 – 11/21/1993 – THC – Lillehammer norway-11
1028. slovakia-11 SVK 5-3 RUS russia1991to93-11 – 11/20/1993 – THC – Lillehammer norway-11
1027. slovakia-11 SVK 4-0 CAN canada1965-11 – 11/18/1993 – THC – Lillehammer norway-11
1026. slovakia-11 SVK 3-3 NOR norway-11 – 11/17/1993 – THC – Lillehammer norway-11
1025. slovakia-11 SVK 3-1 FRA france-11 – 11/16/1993 – THC – Lillehammer norway-11
1024. slovakia-11 SVK 7-1 GBR britain-11 – 09/04/1993 – OQ – Sheffield britain-11
1023. slovakia-11 SVK 7-1 LAT latvia-11 – 09/02/1993 – OQ – Sheffield britain-11
1022. slovakia-11 SVK 4-4 POL poland-11 – 09/01/1993 – OQ – Sheffield britain-11
1021. slovakia-11 SVK 7-2 JPN japan-11 – 08/29/1993 – OQ – Sheffield britain-11
1020. slovakia-11 SVK 8-1 FRA france-11 – 08/23/1993 – EX – Trenčín slovakia-11
1019. slovakia-11 SVK 14-0 FRA france-11 – 08/22/1993 – EX – Bratislava slovakia-11

france-11 FRANCE – 5th reign, 1 win
1018. france-11 FRA 3-1 SUI switzerland-11 – 04/29/1993 – WC – Munich germany1920to33and49-11

switzerland-11 SWITZERLAND – 4th reign, 1 win
1017. switzerland-11 SUI 6-4 SWE sweden-11 – 04/25/1993 – WC – Munich germany1920to33and49-11

sweden-11 SWEDEN – 38th reign, 1 win
1016. sweden-11 SWE 5-2 RUS russia1991to93-11 – 04/24/1993 – WC – Munich germany1920to33and49-11

russia1991to93-11 RUSSIA – 39th reign, 3 wins
1015. russia1991to93-11 RUS 6-0 SUI switzerland-11 – 04/22/1993 – WC – Munich germany1920to33and49-11
1014. russia1991to93-11 RUS 4-2 AUT austria-11 – 04/19/1993 – WC – Munich germany1920to33and49-11
1013. russia1991to93-11 RUS 2-2 ITA italy-11 – 04/18/1993 – WC – Munich germany1920to33and49-11
1012. russia1991to93-11 RUS 2-0 GER germany1920to33and49-11 – 04/11/1993 – EX – Munich germany1920to33and49-11

germany1920to33and49-11 GERMANY – 8th reign, 1 win
1011. germany1920to33and49-11 GER 6-4 RUS russia1991to93-11 – 04/10/1993 – EX – Kaufbeuren germany1920to33and49-11

russia1991to93-11 RUSSIA – 38th reign, 2 wins
1010. russia1991to93-11 RUS 3-0 AUT austria-11 – 04/07/1993 – EX – Zell am See austria-11
1009. russia1991to93-11 RUS 2-2 SUI switzerland-11 – 04/06/1993 – EX – Rapperswil switzerland-11
1008. russia1991to93-11 RUS 4-2 SWE sweden-11 – 02/14/1993 – SHG – Stockholm sweden-11

sweden-11 SWEDEN – 37th reign, 1 win
1007. sweden-11 SWE 3-2 CZE czech-11 – 02/12/1993 – SHG – Stockholm sweden-11

czech-11 CZECHIA – 36th reign, 1 win
1006. czech-11 CZE 6-1 RUS russia1991to93-11 – 02/11/1993 – SHG – Stockholm sweden-11

COUNTRIES LEGEND: austria-11 AUT = Austria. belarus-11 BLR = Belaruscanada1965-11 CAN = Canadaczech-11 CZE = Czechia. denmark-11 DEN = Denmarkfinland-11 FIN = Finlandfrance-11 FRA = France. britain-11 GBR = Great Britaingermany1920to33and49-11 GER = Germanyhungary-11 HUN = Hungaryitaly-11 ITA = Italy. japan-11 JPN = Japan. kazakhstan-11 KAZ = Kazakhstan. latvia-11 LAT = Latvianorway-11 NOR = Norway. poland-11 POL = Poland. russia-11 RUS = Russia. slovenia-11 SLO = Sloveniaswitzerland-11 SUI = Switzerlandslovakia-11 SVK = Slovakiasweden-11 SWE = Swedenusa-11 USA = United States.

EVENTS LEGEND: goldmedal = Gold Medal / Championship game. ARC = Arosa Challenge. BC = Baltika Cup. CC = Canada Cup. COC = Channel One Cup. CHG = Czech Hockey Games. CPC = Česká Pojišťovna Cup. DC = Deutschland Cup. EHT = Euro Hockey Tour. EX = Exhibition game. JC = Japan Cup. KT = Karjala Tournament. LC = Lotto Cup. LGG = LG Hockey Games. OG = Olympic Games. OQ = Olympic Qualifier. (OT) = Overtime victory. PC = Polessye Cup. RC = Rosno Cup. RIC = Rimi Cup. SC = Skoda Cup. SHG = Sweden Hockey Games. (SO) = Shootout victory. SWC = Swiss Challenge. THC = Tele Hockey Cup. WC = World Championship. WCH = World Cup Of Hockey. WCQ = World Championship Qualifier.